createdAt,value
2023-05-15T00:02:12.464Z,2.50
2023-05-15T00:12:17.136Z,3.40
2023-05-15T00:22:20.322Z,2.60
2023-05-15T00:32:24.951Z,2.33
2023-05-15T00:42:30.070Z,2.72
2023-05-15T00:52:34.611Z,2.40
2023-05-15T01:02:38.015Z,2.55
2023-05-15T01:12:44.669Z,1.88
2023-05-15T01:23:10.560Z,2.00
2023-05-15T01:33:21.710Z,1.73
2023-05-15T01:43:29.552Z,2.00
2023-05-15T01:53:36.055Z,2.10
2023-05-15T02:03:40.311Z,2.00
2023-05-15T02:13:45.585Z,2.17
2023-05-15T02:23:48.841Z,1.90
2023-05-15T02:33:59.188Z,2.30
2023-05-15T02:44:03.723Z,1.97
2023-05-15T02:54:09.670Z,1.80
2023-05-15T03:04:13.060Z,1.60
2023-05-15T03:14:17.665Z,2.23
2023-05-15T03:24:21.369Z,1.90
2023-05-15T03:34:26.032Z,1.85
2023-05-15T03:44:29.657Z,2.13
2023-05-15T03:54:35.452Z,1.80
2023-05-15T04:04:38.820Z,1.80
2023-05-15T04:14:43.463Z,2.00
2023-05-15T04:24:46.700Z,2.00
2023-05-15T04:34:51.254Z,2.13
2023-05-15T04:44:54.751Z,2.03
2023-05-15T04:54:59.405Z,2.10
2023-05-15T05:05:02.792Z,1.83
2023-05-15T05:15:08.908Z,1.73
2023-05-15T05:25:12.121Z,1.77
2023-05-15T05:35:16.811Z,1.88
2023-05-15T05:45:20.164Z,1.55
2023-05-15T05:55:24.813Z,1.63
2023-05-15T06:05:28.687Z,1.50
2023-05-15T06:15:33.194Z,2.00
2023-05-15T06:25:36.591Z,1.75
2023-05-15T06:35:41.355Z,1.70
2023-05-15T06:45:44.518Z,1.92
2023-05-15T06:55:49.024Z,1.80
2023-05-15T07:05:52.283Z,1.50
2023-05-15T07:15:56.801Z,1.55
2023-05-15T07:25:59.966Z,1.60
2023-05-15T07:36:04.702Z,1.50
2023-05-15T07:46:07.936Z,1.60
2023-05-15T07:56:12.532Z,1.58
2023-05-15T08:06:16.248Z,1.70
2023-05-15T08:16:20.948Z,1.45
2023-05-15T08:26:24.236Z,1.70
2023-05-15T08:36:28.903Z,1.63
2023-05-15T08:46:33.728Z,2.20
2023-05-15T08:56:38.718Z,1.98
2023-05-15T09:06:42.574Z,2.10
2023-05-15T09:16:49.590Z,2.47
2023-05-15T09:27:08.600Z,2.60
2023-05-15T09:37:28.838Z,2.70
2023-05-15T09:47:32.395Z,2.10
2023-05-15T09:57:37.096Z,2.45
2023-05-15T10:07:40.290Z,2.85
2023-05-15T10:17:46.561Z,3.10
2023-05-15T10:27:52.455Z,3.05
2023-05-15T10:37:58.779Z,2.97
2023-05-15T10:48:03.393Z,3.50
2023-05-15T10:58:11.622Z,2.55
2023-05-15T11:08:27.488Z,3.33
2023-05-15T11:18:32.062Z,3.40
2023-05-15T11:28:43.693Z,3.10
2023-05-15T11:38:51.978Z,4.15
2023-05-15T11:48:56.244Z,2.80
2023-05-15T11:59:02.423Z,3.03
2023-05-15T12:09:05.922Z,2.97
2023-05-15T12:19:11.933Z,1.92
2023-05-15T12:29:15.862Z,2.38
2023-05-15T12:39:20.465Z,1.98
2023-05-15T12:49:23.718Z,1.92
2023-05-15T12:59:28.304Z,2.10
2023-05-15T13:09:33.189Z,1.80
2023-05-15T13:19:37.671Z,1.40
2023-05-15T13:29:40.800Z,1.40
2023-05-15T13:39:45.368Z,2.05
2023-05-15T13:49:48.584Z,2.15
2023-05-15T13:59:53.088Z,2.03
2023-05-15T14:09:56.238Z,2.05
2023-05-15T14:20:00.847Z,2.25
2023-05-15T14:30:04.420Z,1.80
2023-05-15T14:40:11.005Z,1.88
2023-05-15T14:50:14.251Z,2.10
2023-05-15T15:00:19.600Z,1.80
2023-05-15T15:10:22.873Z,1.88
2023-05-15T15:20:28.443Z,1.70
2023-05-15T15:30:32.107Z,1.60
2023-05-15T15:40:37.470Z,1.90
2023-05-15T15:50:40.670Z,1.77
2023-05-15T16:00:45.340Z,1.48
2023-05-15T16:10:48.624Z,1.60
2023-05-15T16:20:53.363Z,1.85
2023-05-15T16:30:56.679Z,1.80
2023-05-15T16:41:02.139Z,1.70
2023-05-15T16:51:05.640Z,1.42
2023-05-15T17:01:10.348Z,1.60
2023-05-15T17:11:13.882Z,1.73
2023-05-15T17:21:18.417Z,1.80
2023-05-15T17:31:22.012Z,2.30
2023-05-15T17:41:26.629Z,1.83
2023-05-15T17:51:29.772Z,2.53
2023-05-15T18:01:34.311Z,1.92
2023-05-15T18:11:37.489Z,2.50
2023-05-15T18:21:42.059Z,2.80
2023-05-15T18:31:45.286Z,2.88
2023-05-15T18:41:49.867Z,3.05
2023-05-15T18:51:53.120Z,2.95
2023-05-15T19:01:57.710Z,2.90
2023-05-15T19:12:02.431Z,2.90
2023-05-15T19:22:07.045Z,2.50
2023-05-15T19:32:10.280Z,3.35
2023-05-15T19:42:14.902Z,3.03
2023-05-15T19:52:18.143Z,3.40
2023-05-15T20:02:23.188Z,4.05
2023-05-15T20:12:26.376Z,4.70
2023-05-15T20:22:31.493Z,4.25
2023-05-15T20:32:35.240Z,4.30
2023-05-15T20:42:40.508Z,5.00
2023-05-15T20:52:43.727Z,5.40
2023-05-15T21:02:48.496Z,4.60
2023-05-15T21:12:51.623Z,4.20
2023-05-15T21:22:56.164Z,4.57
2023-05-15T21:32:59.432Z,3.90
2023-05-15T21:43:04.078Z,3.72
2023-05-15T21:53:07.285Z,3.97
2023-05-15T22:03:11.877Z,3.70
2023-05-15T22:13:15.439Z,3.80
2023-05-15T22:23:20.095Z,3.75
2023-05-15T22:33:24.472Z,3.78
2023-05-15T22:43:29.139Z,3.40
2023-05-15T22:53:32.378Z,3.70
2023-05-15T23:03:37.054Z,4.25
2023-05-15T23:13:40.224Z,3.85
2023-05-15T23:23:44.750Z,3.65
2023-05-15T23:33:48.019Z,4.28
2023-05-15T23:43:52.641Z,4.03
2023-05-15T23:53:55.877Z,4.50
